createdAt,value
2023-01-23T00:04:03.000Z,91.92
2023-01-23T00:19:06.793Z,92.38
2023-01-23T00:34:13.890Z,92.74
2023-01-23T00:49:18.055Z,93.12
2023-01-23T01:04:21.422Z,93.46
2023-01-23T01:19:24.672Z,93.67
2023-01-23T01:34:27.909Z,93.77
2023-01-23T01:49:33.647Z,94.31
2023-01-23T02:04:42.770Z,94.62
2023-01-23T02:20:08.419Z,94.62
2023-01-23T02:35:26.850Z,94.54
2023-01-23T02:50:31.141Z,94.58
2023-01-23T03:05:34.425Z,94.48
2023-01-23T03:20:41.770Z,94.88
2023-01-23T03:35:44.980Z,94.95
2023-01-23T03:50:48.421Z,94.63
2023-01-23T04:05:58.938Z,94.90
2023-01-23T04:21:02.646Z,94.49
2023-01-23T04:36:07.544Z,94.56
2023-01-23T04:51:11.634Z,94.56
2023-01-23T05:06:14.857Z,95.37
2023-01-23T05:21:19.597Z,95.11
2023-01-23T05:36:22.904Z,95.01
2023-01-23T05:51:31.803Z,95.11
2023-01-23T06:06:35.851Z,95.13
2023-01-23T06:21:39.240Z,95.08
2023-01-23T06:36:42.829Z,95.23
2023-01-23T06:51:46.200Z,95.36
2023-01-23T07:06:49.763Z,95.25
2023-01-23T07:21:54.438Z,94.94
2023-01-23T07:36:57.582Z,95.32
2023-01-23T07:52:00.733Z,95.40
2023-01-23T08:07:04.422Z,95.26
2023-01-23T08:22:07.531Z,94.69
2023-01-23T08:37:10.804Z,94.26
2023-01-23T08:52:13.950Z,93.26
2023-01-23T09:07:17.129Z,92.94
2023-01-23T09:22:20.610Z,92.39
2023-01-23T09:37:23.757Z,92.12
2023-01-23T09:52:34.446Z,90.86
2023-01-23T10:08:25.237Z,90.92
2023-01-23T10:23:49.388Z,89.93
2023-01-23T10:38:52.889Z,89.63
2023-01-23T10:54:33.147Z,89.05
2023-01-23T11:09:53.023Z,88.20
2023-01-23T11:24:56.526Z,88.99
2023-01-23T11:40:04.977Z,89.19
2023-01-23T11:55:48.743Z,89.24
2023-01-23T12:11:12.349Z,89.03
2023-01-23T12:26:22.739Z,88.97
2023-01-23T12:41:38.128Z,88.71
2023-01-23T12:56:42.691Z,88.32
2023-01-23T13:12:24.628Z,88.42
2023-01-23T13:27:42.754Z,88.06
2023-01-23T13:42:46.236Z,87.25
2023-01-23T14:29:01.417Z,87.69
2023-01-23T14:44:05.251Z,87.73
2023-01-23T14:59:27.245Z,87.62
2023-01-23T15:14:36.910Z,88.05
2023-01-23T15:29:40.137Z,88.26
2023-01-23T15:44:43.988Z,88.29
2023-01-23T15:59:48.292Z,88.58
2023-01-23T16:14:51.658Z,88.65
2023-01-23T16:29:55.738Z,88.77
2023-01-23T16:44:58.950Z,89.21
2023-01-23T17:00:03.907Z,89.24
2023-01-23T17:15:07.933Z,89.69
2023-01-23T17:30:23.884Z,89.63
2023-01-23T17:45:28.348Z,89.48
2023-01-23T18:00:31.805Z,89.58
2023-01-23T18:15:41.917Z,89.67
2023-01-23T18:31:00.278Z,89.49
2023-01-23T18:46:11.730Z,89.66
2023-01-23T19:01:35.169Z,89.97
2023-01-23T19:16:45.548Z,90.66
2023-01-23T19:32:04.117Z,90.83
2023-01-23T19:47:08.936Z,90.94
2023-01-23T20:02:19.574Z,90.82
2023-01-23T20:17:23.440Z,91.12
2023-01-23T20:32:35.170Z,91.22
2023-01-23T20:47:41.771Z,91.34
2023-01-23T21:02:46.778Z,91.72
2023-01-23T21:17:55.975Z,91.76
2023-01-23T21:33:06.288Z,92.05
2023-01-23T21:48:14.642Z,92.18
2023-01-23T22:03:17.827Z,92.47
2023-01-23T22:18:21.016Z,93.13
2023-01-23T22:33:30.079Z,93.26
2023-01-23T22:48:52.680Z,93.24
2023-01-23T23:04:00.329Z,93.24
2023-01-23T23:19:04.781Z,93.27
2023-01-23T23:34:08.411Z,93.60
2023-01-23T23:49:11.560Z,93.60
